sensor_id;sensor_type;location;lat;lon;timestamp;pressure;altitude;pressure_sealevel;temperature;humidity
58373;BME280;44177;43.356;27.672;2023-04-04T00:01:56;97443.19;;;7.25;98.03
58373;BME280;44177;43.356;27.672;2023-04-04T00:04:21;97417.53;;;7.22;97.77
58373;BME280;44177;43.356;27.672;2023-04-04T00:06:47;97430.88;;;7.27;97.92
58373;BME280;44177;43.356;27.672;2023-04-04T00:09:13;97400.84;;;7.08;98.57
58373;BME280;44177;43.356;27.672;2023-04-04T00:11:39;97408.97;;;7.08;98.63
58373;BME280;44177;43.356;27.672;2023-04-04T00:14:06;97415.41;;;7.03;98.75
58373;BME280;44177;43.356;27.672;2023-04-04T00:16:32;97421.19;;;7.14;99.06
58373;BME280;44177;43.356;27.672;2023-04-04T00:18:58;97380.09;;;6.87;99.28
58373;BME280;44177;43.356;27.672;2023-04-04T00:21:23;97419.72;;;7.04;99.32
58373;BME280;44177;43.356;27.672;2023-04-04T00:23:52;97407.50;;;7.10;99.30
58373;BME280;44177;43.356;27.672;2023-04-04T00:26:19;97399.13;;;7.16;99.27
58373;BME280;44177;43.356;27.672;2023-04-04T00:28:46;97396.44;;;7.16;99.18
58373;BME280;44177;43.356;27.672;2023-04-04T00:31:11;97392.81;;;7.11;99.65
58373;BME280;44177;43.356;27.672;2023-04-04T00:33:37;97370.78;;;7.13;99.50
58373;BME280;44177;43.356;27.672;2023-04-04T00:36:02;97367.38;;;7.16;99.71
58373;BME280;44177;43.356;27.672;2023-04-04T00:38:28;97346.59;;;7.08;99.42
58373;BME280;44177;43.356;27.672;2023-04-04T00:40:55;97339.00;;;7.14;99.45
58373;BME280;44177;43.356;27.672;2023-04-04T00:43:21;97342.84;;;7.13;99.50
58373;BME280;44177;43.356;27.672;2023-04-04T00:45:48;97325.34;;;7.10;99.57
58373;BME280;44177;43.356;27.672;2023-04-04T00:48:14;97320.28;;;7.08;99.72
58373;BME280;44177;43.356;27.672;2023-04-04T00:50:39;97324.91;;;7.08;99.45
58373;BME280;44177;43.356;27.672;2023-04-04T00:53:05;97319.47;;;7.08;99.45
58373;BME280;44177;43.356;27.672;2023-04-04T00:55:31;97314.50;;;7.10;99.55
58373;BME280;44177;43.356;27.672;2023-04-04T00:57:57;97300.38;;;7.04;99.31
58373;BME280;44177;43.356;27.672;2023-04-04T01:00:25;97312.03;;;7.05;99.74
58373;BME280;44177;43.356;27.672;2023-04-04T01:02:50;97311.59;;;7.03;99.90
58373;BME280;44177;43.356;27.672;2023-04-04T01:05:16;97306.16;;;7.03;99.94
58373;BME280;44177;43.356;27.672;2023-04-04T01:07:42;97310.41;;;7.16;99.87
58373;BME280;44177;43.356;27.672;2023-04-04T01:10:07;97293.06;;;7.05;99.74
58373;BME280;44177;43.356;27.672;2023-04-04T01:12:34;97299.16;;;7.02;99.89
58373;BME280;44177;43.356;27.672;2023-04-04T01:15:00;97310.47;;;7.04;99.85
58373;BME280;44177;43.356;27.672;2023-04-04T01:17:26;97309.44;;;7.08;99.55
58373;BME280;44177;43.356;27.672;2023-04-04T01:20:07;97319.47;;;7.08;99.64
58373;BME280;44177;43.356;27.672;2023-04-04T01:22:36;97301.63;;;7.07;99.60
58373;BME280;44177;43.356;27.672;2023-04-04T01:25:04;97318.13;;;7.14;99.23
58373;BME280;44177;43.356;27.672;2023-04-04T01:27:31;97309.34;;;7.05;99.58
58373;BME280;44177;43.356;27.672;2023-04-04T01:29:57;97308.53;;;7.04;99.50
58373;BME280;44177;43.356;27.672;2023-04-04T01:32:35;97307.97;;;6.99;99.80
58373;BME280;44177;43.356;27.672;2023-04-04T01:37:51;97300.50;;;7.08;99.52
58373;BME280;44177;43.356;27.672;2023-04-04T01:40:23;97294.84;;;7.13;99.62
58373;BME280;44177;43.356;27.672;2023-04-04T01:42:50;97302.06;;;7.09;99.59
58373;BME280;44177;43.356;27.672;2023-04-04T01:45:16;97291.69;;;7.11;99.57
58373;BME280;44177;43.356;27.672;2023-04-04T01:47:42;97282.13;;;7.01;99.77
58373;BME280;44177;43.356;27.672;2023-04-04T01:50:09;97260.41;;;7.01;100.00
58373;BME280;44177;43.356;27.672;2023-04-04T01:52:35;97263.56;;;7.03;100.00
58373;BME280;44177;43.356;27.672;2023-04-04T01:55:02;97255.50;;;7.07;99.90
58373;BME280;44177;43.356;27.672;2023-04-04T01:57:28;97238.13;;;7.08;99.70
58373;BME280;44177;43.356;27.672;2023-04-04T01:59:53;97236.63;;;7.10;99.39
58373;BME280;44177;43.356;27.672;2023-04-04T02:02:19;97239.78;;;7.13;99.41
58373;BME280;44177;43.356;27.672;2023-04-04T02:04:44;97239.78;;;7.13;99.45
58373;BME280;44177;43.356;27.672;2023-04-04T02:07:10;97230.69;;;7.05;99.50
58373;BME280;44177;43.356;27.672;2023-04-04T02:09:36;97219.47;;;7.06;99.08
58373;BME280;44177;43.356;27.672;2023-04-04T02:12:02;97223.69;;;7.20;98.81
58373;BME280;44177;43.356;27.672;2023-04-04T02:14:27;97224.31;;;7.13;99.04
58373;BME280;44177;43.356;27.672;2023-04-04T02:16:53;97226.94;;;7.25;98.48
58373;BME280;44177;43.356;27.672;2023-04-04T02:19:18;97222.31;;;7.26;98.38
58373;BME280;44177;43.356;27.672;2023-04-04T02:21:44;97212.25;;;7.26;98.28
58373;BME280;44177;43.356;27.672;2023-04-04T02:24:10;97227.41;;;7.27;98.16
58373;BME280;44177;43.356;27.672;2023-04-04T02:26:35;97219.06;;;7.20;98.07
58373;BME280;44177;43.356;27.672;2023-04-04T02:29:01;97225.81;;;7.26;98.05
58373;BME280;44177;43.356;27.672;2023-04-04T02:31:27;97204.44;;;7.09;98.27
58373;BME280;44177;43.356;27.672;2023-04-04T02:33:53;97242.28;;;7.34;98.36
58373;BME280;44177;43.356;27.672;2023-04-04T02:36:18;97237.22;;;7.32;97.96
58373;BME280;44177;43.356;27.672;2023-04-04T02:38:44;97246.13;;;7.33;98.02
58373;BME280;44177;43.356;27.672;2023-04-04T02:41:09;97226.78;;;7.18;98.91
58373;BME280;44177;43.356;27.672;2023-04-04T02:43:35;97221.63;;;7.29;98.81
58373;BME280;44177;43.356;27.672;2023-04-04T02:46:00;97211.56;;;7.30;98.66
58373;BME280;44177;43.356;27.672;2023-04-04T02:48:26;97211.97;;;7.32;98.49
58373;BME280;44177;43.356;27.672;2023-04-04T02:50:51;97201.84;;;7.29;98.90
58373;BME280;44177;43.356;27.672;2023-04-04T02:53:17;97205.94;;;7.22;99.60
58373;BME280;44177;43.356;27.672;2023-04-04T02:55:42;97193.88;;;7.20;99.64
58373;BME280;44177;43.356;27.672;2023-04-04T02:58:08;97205.69;;;7.27;99.61
58373;BME280;44177;43.356;27.672;2023-04-04T03:00:33;97202.81;;;7.20;99.58
58373;BME280;44177;43.356;27.672;2023-04-04T03:02:59;97203.41;;;7.14;100.00
58373;BME280;44177;43.356;27.672;2023-04-04T03:05:25;97183.00;;;7.04;100.00
58373;BME280;44177;43.356;27.672;2023-04-04T03:07:55;97191.69;;;7.09;100.00
58373;BME280;44177;43.356;27.672;2023-04-04T03:10:25;97201.31;;;7.23;100.00
58373;BME280;44177;43.356;27.672;2023-04-04T03:12:51;97188.69;;;7.15;100.00
58373;BME280;44177;43.356;27.672;2023-04-04T03:15:16;97200.31;;;7.15;100.00
58373;BME280;44177;43.356;27.672;2023-04-04T03:17:42;97201.50;;;7.14;100.00
58373;BME280;44177;43.356;27.672;2023-04-04T03:20:10;97191.69;;;7.09;100.00
58373;BME280;44177;43.356;27.672;2023-04-04T03:22:36;97187.03;;;7.10;100.00
58373;BME280;44177;43.356;27.672;2023-04-04T03:25:01;97181.50;;;7.06;100.00
58373;BME280;44177;43.356;27.672;2023-04-04T03:27:30;97184.31;;;7.10;100.00
58373;BME280;44177;43.356;27.672;2023-04-04T03:29:56;97198.56;;;7.07;100.00
58373;BME280;44177;43.356;27.672;2023-04-04T03:32:22;97187.53;;;7.00;100.00
58373;BME280;44177;43.356;27.672;2023-04-04T03:34:47;97189.13;;;7.01;100.00
58373;BME280;44177;43.356;27.672;2023-04-04T03:37:13;97201.03;;;7.12;100.00
58373;BME280;44177;43.356;27.672;2023-04-04T03:39:38;97193.84;;;7.04;100.00
58373;BME280;44177;43.356;27.672;2023-04-04T03:42:04;97200.16;;;7.08;100.00
58373;BME280;44177;43.356;27.672;2023-04-04T03:44:29;97197.78;;;7.06;100.00
58373;BME280;44177;43.356;27.672;2023-04-04T03:46:55;97203.13;;;7.03;100.00
58373;BME280;44177;43.356;27.672;2023-04-04T03:49:20;97201.00;;;6.96;100.00
58373;BME280;44177;43.356;27.672;2023-04-04T03:51:46;97215.34;;;6.97;100.00
58373;BME280;44177;43.356;27.672;2023-04-04T03:54:11;97226.13;;;6.93;100.00
58373;BME280;44177;43.356;27.672;2023-04-04T03:56:37;97233.13;;;6.94;100.00
58373;BME280;44177;43.356;27.672;2023-04-04T03:59:02;97238.72;;;7.01;100.00
58373;BME280;44177;43.356;27.672;2023-04-04T04:01:28;97240.81;;;7.08;100.00
58373;BME280;44177;43.356;27.672;2023-04-04T04:03:53;97248.97;;;7.08;100.00
58373;BME280;44177;43.356;27.672;2023-04-04T04:06:19;97230.91;;;7.00;100.00
58373;BME280;44177;43.356;27.672;2023-04-04T04:08:45;97246.59;;;7.06;100.00
58373;BME280;44177;43.356;27.672;2023-04-04T04:11:10;97239.69;;;7.09;100.00
58373;BME280;44177;43.356;27.672;2023-04-04T04:13:36;97224.13;;;7.06;100.00
58373;BME280;44177;43.356;27.672;2023-04-04T04:16:03;97227.97;;;7.05;100.00
58373;BME280;44177;43.356;27.672;2023-04-04T04:18:29;97216.00;;;7.06;100.00
58373;BME280;44177;43.356;27.672;2023-04-04T04:20:58;97200.41;;;7.03;100.00
58373;BME280;44177;43.356;27.672;2023-04-04T04:23:24;97223.41;;;7.09;100.00
58373;BME280;44177;43.356;27.672;2023-04-04T04:25:49;97201.63;;;7.05;100.00
58373;BME280;44177;43.356;27.672;2023-04-04T04:28:15;97193.94;;;7.07;100.00
58373;BME280;44177;43.356;27.672;2023-04-04T04:30:40;97183.69;;;7.01;100.00
58373;BME280;44177;43.356;27.672;2023-04-04T04:33:06;97150.53;;;6.91;100.00
58373;BME280;44177;43.356;27.672;2023-04-04T04:35:35;97162.25;;;6.95;100.00
58373;BME280;44177;43.356;27.672;2023-04-04T04:38:01;97151.41;;;6.95;100.00
58373;BME280;44177;43.356;27.672;2023-04-04T04:40:27;97168.03;;;6.94;100.00
58373;BME280;44177;43.356;27.672;2023-04-04T04:42:52;97152.38;;;6.87;100.00
58373;BME280;44177;43.356;27.672;2023-04-04T04:45:18;97125.25;;;6.87;100.00
58373;BME280;44177;43.356;27.672;2023-04-04T04:47:43;97123.84;;;6.93;100.00
58373;BME280;44177;43.356;27.672;2023-04-04T04:50:09;97127.38;;;6.94;100.00
58373;BME280;44177;43.356;27.672;2023-04-04T04:52:36;97121.59;;;6.95;100.00
58373;BME280;44177;43.356;27.672;2023-04-04T04:55:01;97135.16;;;6.95;100.00
58373;BME280;44177;43.356;27.672;2023-04-04T04:57:27;97118.53;;;6.97;100.00
58373;BME280;44177;43.356;27.672;2023-04-04T04:59:53;97115.44;;;6.99;100.00
58373;BME280;44177;43.356;27.672;2023-04-04T05:02:18;97113.47;;;6.95;100.00
58373;BME280;44177;43.356;27.672;2023-04-04T05:04:43;97121.16;;;6.93;100.00
58373;BME280;44177;43.356;27.672;2023-04-04T05:07:09;97120.53;;;7.00;100.00
58373;BME280;44177;43.356;27.672;2023-04-04T05:09:36;97125.25;;;7.03;100.00
58373;BME280;44177;43.356;27.672;2023-04-04T05:12:02;97117.13;;;7.03;100.00
58373;BME280;44177;43.356;27.672;2023-04-04T05:14:28;97116.00;;;7.04;100.00
58373;BME280;44177;43.356;27.672;2023-04-04T05:16:53;97119.50;;;7.05;100.00
58373;BME280;44177;43.356;27.672;2023-04-04T05:19:18;97130.16;;;6.98;100.00
58373;BME280;44177;43.356;27.672;2023-04-04T05:21:44;97141.25;;;6.92;100.00
58373;BME280;44177;43.356;27.672;2023-04-04T05:24:10;97150.97;;;6.93;100.00
58373;BME280;44177;43.356;27.672;2023-04-04T05:26:35;97178.09;;;6.93;100.00
58373;BME280;44177;43.356;27.672;2023-04-04T05:29:01;97176.41;;;6.89;100.00
58373;BME280;44177;43.356;27.672;2023-04-04T05:31:26;97189.63;;;6.90;100.00
58373;BME280;44177;43.356;27.672;2023-04-04T05:33:52;97197.50;;;6.95;100.00
58373;BME280;44177;43.356;27.672;2023-04-04T05:36:18;97200.91;;;6.92;100.00
58373;BME280;44177;43.356;27.672;2023-04-04T05:38:43;97192.22;;;6.87;100.00
58373;BME280;44177;43.356;27.672;2023-04-04T05:41:09;97202.94;;;6.95;100.00
58373;BME280;44177;43.356;27.672;2023-04-04T05:43:35;97192.94;;;6.84;100.00
58373;BME280;44177;43.356;27.672;2023-04-04T05:46:00;97202.94;;;6.95;100.00
58373;BME280;44177;43.356;27.672;2023-04-04T05:48:26;97215.53;;;7.04;100.00
58373;BME280;44177;43.356;27.672;2023-04-04T05:50:51;97211.50;;;6.98;100.00
58373;BME280;44177;43.356;27.672;2023-04-04T05:53:17;97203.13;;;7.03;100.00
58373;BME280;44177;43.356;27.672;2023-04-04T05:55:43;97203.31;;;7.10;100.00
58373;BME280;44177;43.356;27.672;2023-04-04T05:58:08;97186.69;;;7.11;100.00
58373;BME280;44177;43.356;27.672;2023-04-04T06:00:34;97181.34;;;7.15;100.00
58373;BME280;44177;43.356;27.672;2023-04-04T06:03:00;97194.91;;;7.15;100.00
58373;BME280;44177;43.356;27.672;2023-04-04T06:05:25;97198.50;;;7.19;100.00
58373;BME280;44177;43.356;27.672;2023-04-04T06:07:50;97185.22;;;7.14;100.00
58373;BME280;44177;43.356;27.672;2023-04-04T06:10:16;97194.75;;;7.24;100.00
58373;BME280;44177;43.356;27.672;2023-04-04T06:12:41;97192.66;;;7.33;100.00
58373;BME280;44177;43.356;27.672;2023-04-04T06:15:07;97201.56;;;7.34;100.00
58373;BME280;44177;43.356;27.672;2023-04-04T06:17:33;97184.00;;;7.27;100.00
58373;BME280;44177;43.356;27.672;2023-04-04T06:19:59;97177.34;;;7.25;100.00
58373;BME280;44177;43.356;27.672;2023-04-04T06:22:24;97169.03;;;7.34;100.00
58373;BME280;44177;43.356;27.672;2023-04-04T06:24:50;97175.84;;;7.27;100.00
58373;BME280;44177;43.356;27.672;2023-04-04T06:27:15;97175.34;;;7.38;100.00
58373;BME280;44177;43.356;27.672;2023-04-04T06:29:41;97180.31;;;7.36;100.00
58373;BME280;44177;43.356;27.672;2023-04-04T06:32:07;97180.56;;;7.31;100.00
58373;BME280;44177;43.356;27.672;2023-04-04T06:34:32;97194.84;;;7.43;100.00
58373;BME280;44177;43.356;27.672;2023-04-04T06:36:58;97167.38;;;7.45;100.00
58373;BME280;44177;43.356;27.672;2023-04-04T06:39:23;97182.56;;;7.50;100.00
58373;BME280;44177;43.356;27.672;2023-04-04T06:41:49;97187.59;;;7.48;100.00
58373;BME280;44177;43.356;27.672;2023-04-04T06:44:14;97176.81;;;7.51;100.00
58373;BME280;44177;43.356;27.672;2023-04-04T06:46:40;97167.44;;;7.65;100.00
58373;BME280;44177;43.356;27.672;2023-04-04T06:49:05;97154.91;;;7.60;100.00
58373;BME280;44177;43.356;27.672;2023-04-04T06:51:34;97145.72;;;7.65;100.00
58373;BME280;44177;43.356;27.672;2023-04-04T06:54:00;97151.06;;;7.61;100.00
58373;BME280;44177;43.356;27.672;2023-04-04T06:56:26;97155.63;;;7.57;100.00
58373;BME280;44177;43.356;27.672;2023-04-04T06:58:52;97152.28;;;7.64;100.00
58373;BME280;44177;43.356;27.672;2023-04-04T07:01:17;97138.00;;;7.67;100.00
58373;BME280;44177;43.356;27.672;2023-04-04T07:03:43;97134.16;;;7.68;100.00
58373;BME280;44177;43.356;27.672;2023-04-04T07:06:11;97123.31;;;7.68;100.00
58373;BME280;44177;43.356;27.672;2023-04-04T07:08:36;97107.00;;;7.68;100.00
58373;BME280;44177;43.356;27.672;2023-04-04T07:11:05;97112.84;;;7.70;100.00
58373;BME280;44177;43.356;27.672;2023-04-04T07:13:32;97095.28;;;7.64;100.00
58373;BME280;44177;43.356;27.672;2023-04-04T07:15:59;97119.16;;;7.74;100.00
58373;BME280;44177;43.356;27.672;2023-04-04T07:18:26;97107.25;;;7.79;100.00
58373;BME280;44177;43.356;27.672;2023-04-04T07:20:51;97085.78;;;7.73;100.00
58373;BME280;44177;43.356;27.672;2023-04-04T07:23:17;97081.25;;;7.78;100.00
58373;BME280;44177;43.356;27.672;2023-04-04T07:25:42;97074.81;;;7.86;100.00
58373;BME280;44177;43.356;27.672;2023-04-04T07:28:08;97051.09;;;8.02;100.00
58373;BME280;44177;43.356;27.672;2023-04-04T07:30:33;97042.78;;;8.15;100.00
58373;BME280;44177;43.356;27.672;2023-04-04T07:32:59;97041.59;;;8.12;100.00
58373;BME280;44177;43.356;27.672;2023-04-04T07:35:25;97056.69;;;8.10;100.00
58373;BME280;44177;43.356;27.672;2023-04-04T07:37:50;97086.03;;;8.04;100.00
58373;BME280;44177;43.356;27.672;2023-04-04T07:40:17;97104.22;;;8.00;100.00
58373;BME280;44177;43.356;27.672;2023-04-04T07:42:46;97095.56;;;7.94;100.00
58373;BME280;44177;43.356;27.672;2023-04-04T07:45:15;97089.59;;;7.88;100.00
58373;BME280;44177;43.356;27.672;2023-04-04T07:47:44;97071.59;;;7.80;100.00
58373;BME280;44177;43.356;27.672;2023-04-04T07:50:14;97064.72;;;7.86;100.00
58373;BME280;44177;43.356;27.672;2023-04-04T07:52:40;97067.31;;;7.99;100.00
58373;BME280;44177;43.356;27.672;2023-04-04T07:55:07;97059.31;;;8.06;100.00
58373;BME280;44177;43.356;27.672;2023-04-04T07:57:36;97050.88;;;8.11;100.00
58373;BME280;44177;43.356;27.672;2023-04-04T08:00:02;97055.16;;;8.12;100.00
58373;BME280;44177;43.356;27.672;2023-04-04T08:02:29;97057.38;;;8.26;100.00
58373;BME280;44177;43.356;27.672;2023-04-04T08:04:55;97042.59;;;8.24;100.00
58373;BME280;44177;43.356;27.672;2023-04-04T08:07:20;97013.34;;;8.17;100.00
58373;BME280;44177;43.356;27.672;2023-04-04T08:09:46;97043.88;;;8.30;100.00
58373;BME280;44177;43.356;27.672;2023-04-04T08:12:12;97053.03;;;8.21;100.00
58373;BME280;44177;43.356;27.672;2023-04-04T08:14:38;97064.59;;;8.18;100.00
58373;BME280;44177;43.356;27.672;2023-04-04T08:17:03;97076.81;;;8.09;100.00
58373;BME280;44177;43.356;27.672;2023-04-04T08:19:28;97084.53;;;8.06;100.00
58373;BME280;44177;43.356;27.672;2023-04-04T08:21:54;97073.75;;;8.10;100.00
58373;BME280;44177;43.356;27.672;2023-04-04T08:24:20;97062.09;;;8.10;100.00
58373;BME280;44177;43.356;27.672;2023-04-04T08:26:47;97063.19;;;8.25;100.00
58373;BME280;44177;43.356;27.672;2023-04-04T08:29:12;97040.94;;;8.19;100.00
58373;BME280;44177;43.356;27.672;2023-04-04T08:31:38;97036.53;;;8.11;100.00
58373;BME280;44177;43.356;27.672;2023-04-04T08:34:04;97044.44;;;8.19;100.00
58373;BME280;44177;43.356;27.672;2023-04-04T08:36:31;97039.16;;;8.07;100.00
58373;BME280;44177;43.356;27.672;2023-04-04T08:38:58;97059.31;;;8.06;100.00
58373;BME280;44177;43.356;27.672;2023-04-04T08:41:23;97061.16;;;8.02;100.00
58373;BME280;44177;43.356;27.672;2023-04-04T08:43:49;97068.09;;;7.99;100.00
58373;BME280;44177;43.356;27.672;2023-04-04T08:46:20;97060.47;;;8.05;100.00
58373;BME280;44177;43.356;27.672;2023-04-04T08:48:46;97054.00;;;7.94;100.00
58373;BME280;44177;43.356;27.672;2023-04-04T08:51:13;97080.50;;;8.16;100.00
58373;BME280;44177;43.356;27.672;2023-04-04T08:53:40;97075.63;;;8.06;100.00
58373;BME280;44177;43.356;27.672;2023-04-04T08:56:06;97062.47;;;8.08;100.00
58373;BME280;44177;43.356;27.672;2023-04-04T08:58:31;97084.50;;;8.22;100.00
58373;BME280;44177;43.356;27.672;2023-04-04T09:00:56;97091.91;;;8.26;100.00
58373;BME280;44177;43.356;27.672;2023-04-04T09:03:26;97097.00;;;8.27;100.00
58373;BME280;44177;43.356;27.672;2023-04-04T09:05:55;97089.63;;;8.28;100.00
58373;BME280;44177;43.356;27.672;2023-04-04T09:08:21;97092.78;;;8.30;100.00
58373;BME280;44177;43.356;27.672;2023-04-04T09:10:49;97096.19;;;8.27;100.00
58373;BME280;44177;43.356;27.672;2023-04-04T09:13:15;97096.34;;;8.34;100.00
58373;BME280;44177;43.356;27.672;2023-04-04T09:15:45;97086.69;;;8.36;100.00
58373;BME280;44177;43.356;27.672;2023-04-04T09:18:11;97099.06;;;8.34;100.00
58373;BME280;44177;43.356;27.672;2023-04-04T09:20:37;97092.91;;;8.37;100.00
58373;BME280;44177;43.356;27.672;2023-04-04T09:23:05;97083.63;;;8.38;100.00
58373;BME280;44177;43.356;27.672;2023-04-04T09:25:32;97065.66;;;8.33;100.00
58373;BME280;44177;43.356;27.672;2023-04-04T09:27:58;97078.84;;;8.51;100.00
58373;BME280;44177;43.356;27.672;2023-04-04T09:30:26;97087.97;;;8.62;100.00
58373;BME280;44177;43.356;27.672;2023-04-04T09:32:51;97086.94;;;8.47;100.00
58373;BME280;44177;43.356;27.672;2023-04-04T09:35:18;97095.63;;;8.57;100.00
58373;BME280;44177;43.356;27.672;2023-04-04T09:37:44;97098.91;;;8.66;100.00
58373;BME280;44177;43.356;27.672;2023-04-04T09:40:11;97098.19;;;8.69;100.00
58373;BME280;44177;43.356;27.672;2023-04-04T09:42:37;97098.88;;;8.85;100.00
58373;BME280;44177;43.356;27.672;2023-04-04T09:45:03;97105.09;;;8.86;100.00
58373;BME280;44177;43.356;27.672;2023-04-04T09:47:29;97107.28;;;9.00;100.00
58373;BME280;44177;43.356;27.672;2023-04-04T09:50:01;97101.25;;;9.10;100.00
58373;BME280;44177;43.356;27.672;2023-04-04T09:52:32;97097.00;;;9.13;99.69
58373;BME280;44177;43.356;27.672;2023-04-04T09:55:00;97084.50;;;9.08;99.45
58373;BME280;44177;43.356;27.672;2023-04-04T09:57:31;97090.00;;;9.12;99.24
58373;BME280;44177;43.356;27.672;2023-04-04T10:00:05;97094.88;;;9.26;99.29
58373;BME280;44177;43.356;27.672;2023-04-04T10:02:39;97085.19;;;9.28;98.25
58373;BME280;44177;43.356;27.672;2023-04-04T10:05:10;97078.91;;;9.24;98.96
58373;BME280;44177;43.356;27.672;2023-04-04T10:07:39;97071.47;;;9.21;98.67
58373;BME280;44177;43.356;27.672;2023-04-04T10:10:07;97082.47;;;9.28;98.90
58373;BME280;44177;43.356;27.672;2023-04-04T10:12:36;97077.91;;;9.36;99.39
58373;BME280;44177;43.356;27.672;2023-04-04T10:15:02;97084.59;;;9.39;99.55
58373;BME280;44177;43.356;27.672;2023-04-04T10:20:03;97095.69;;;9.53;98.54
58373;BME280;44177;43.356;27.672;2023-04-04T10:22:32;97090.19;;;9.50;98.07
58373;BME280;44177;43.356;27.672;2023-04-04T10:24:59;97097.31;;;9.58;97.91
58373;BME280;44177;43.356;27.672;2023-04-04T10:27:25;97087.97;;;9.59;97.33
58373;BME280;44177;43.356;27.672;2023-04-04T10:29:51;97091.22;;;9.68;97.92
58373;BME280;44177;43.356;27.672;2023-04-04T10:32:32;97085.56;;;9.80;97.09
58373;BME280;44177;43.356;27.672;2023-04-04T10:35:08;97082.00;;;9.76;97.33
58373;BME280;44177;43.356;27.672;2023-04-04T10:37:42;97090.78;;;9.93;97.12
58373;BME280;44177;43.356;27.672;2023-04-04T10:40:09;97083.13;;;10.02;97.19
58373;BME280;44177;43.356;27.672;2023-04-04T10:42:43;97075.66;;;9.99;96.34
58373;BME280;44177;43.356;27.672;2023-04-04T10:45:09;97077.03;;;10.13;96.23
58373;BME280;44177;43.356;27.672;2023-04-04T10:47:36;97073.19;;;10.17;95.32
58373;BME280;44177;43.356;27.672;2023-04-04T10:50:03;97082.63;;;10.27;94.79
58373;BME280;44177;43.356;27.672;2023-04-04T10:52:32;97091.16;;;10.22;94.39
58373;BME280;44177;43.356;27.672;2023-04-04T10:55:04;97086.50;;;10.26;94.67
58373;BME280;44177;43.356;27.672;2023-04-04T10:57:35;97084.13;;;10.21;94.20
58373;BME280;44177;43.356;27.672;2023-04-04T11:00:08;97089.53;;;10.17;94.30
58373;BME280;44177;43.356;27.672;2023-04-04T11:02:56;97088.75;;;10.17;94.91
58373;BME280;44177;43.356;27.672;2023-04-04T11:05:36;97095.81;;;10.21;94.99
58373;BME280;44177;43.356;27.672;2023-04-04T11:08:07;97089.88;;;10.16;95.18
58373;BME280;44177;43.356;27.672;2023-04-04T11:13:08;97086.72;;;10.10;95.81
58373;BME280;44177;43.356;27.672;2023-04-04T11:18:46;97077.03;;;10.13;96.09
58373;BME280;44177;43.356;27.672;2023-04-04T11:21:20;97080.97;;;10.19;95.29
58373;BME280;44177;43.356;27.672;2023-04-04T11:26:33;97073.09;;;10.10;95.07
58373;BME280;44177;43.356;27.672;2023-04-04T11:29:01;97083.28;;;10.17;95.66
58373;BME280;44177;43.356;27.672;2023-04-04T11:31:32;97086.44;;;10.19;95.33
58373;BME280;44177;43.356;27.672;2023-04-04T11:41:52;97083.84;;;10.30;94.93
58373;BME280;44177;43.356;27.672;2023-04-04T11:44:19;97089.66;;;10.28;94.93
58373;BME280;44177;43.356;27.672;2023-04-04T11:46:46;97079.50;;;10.25;94.85
58373;BME280;44177;43.356;27.672;2023-04-04T11:49:13;97082.59;;;10.23;94.90
58373;BME280;44177;43.356;27.672;2023-04-04T11:51:40;97075.38;;;10.38;95.30
58373;BME280;44177;43.356;27.672;2023-04-04T11:54:15;97072.81;;;10.49;94.31
58373;BME280;44177;43.356;27.672;2023-04-04T11:56:42;97073.56;;;10.50;93.29
58373;BME280;44177;43.356;27.672;2023-04-04T11:59:12;97074.31;;;10.47;93.32
58373;BME280;44177;43.356;27.672;2023-04-04T12:01:38;97071.19;;;10.45;93.59
58373;BME280;44177;43.356;27.672;2023-04-04T12:04:05;97081.72;;;10.46;93.60
58373;BME280;44177;43.356;27.672;2023-04-04T12:06:30;97079.03;;;10.50;93.63
58373;BME280;44177;43.356;27.672;2023-04-04T12:09:02;97070.84;;;10.50;93.54
58373;BME280;44177;43.356;27.672;2023-04-04T12:11:29;97077.91;;;10.54;93.29
58373;BME280;44177;43.356;27.672;2023-04-04T12:13:55;97074.44;;;10.57;93.79
58373;BME280;44177;43.356;27.672;2023-04-04T12:16:21;97073.28;;;10.62;93.16
58373;BME280;44177;43.356;27.672;2023-04-04T12:18:48;97072.97;;;10.67;92.54
58373;BME280;44177;43.356;27.672;2023-04-04T12:21:14;97069.91;;;10.72;92.40
58373;BME280;44177;43.356;27.672;2023-04-04T12:23:40;97056.25;;;10.72;91.82
58373;BME280;44177;43.356;27.672;2023-04-04T12:26:06;97052.00;;;10.75;91.39
58373;BME280;44177;43.356;27.672;2023-04-04T12:28:34;97053.19;;;10.78;91.95
58373;BME280;44177;43.356;27.672;2023-04-04T12:31:03;97048.19;;;10.87;91.79
58373;BME280;44177;43.356;27.672;2023-04-04T12:33:31;97049.84;;;10.95;91.19
58373;BME280;44177;43.356;27.672;2023-04-04T12:36:01;97020.03;;;10.72;90.56
58373;BME280;44177;43.356;27.672;2023-04-04T12:38:29;97054.53;;;10.95;90.31
58373;BME280;44177;43.356;27.672;2023-04-04T12:40:56;97044.59;;;10.76;90.79
58373;BME280;44177;43.356;27.672;2023-04-04T12:43:26;97054.00;;;10.82;91.34
58373;BME280;44177;43.356;27.672;2023-04-04T12:45:53;97048.28;;;10.98;91.34
58373;BME280;44177;43.356;27.672;2023-04-04T12:48:18;97035.06;;;11.00;90.54
58373;BME280;44177;43.356;27.672;2023-04-04T12:50:59;97044.50;;;11.13;90.42
58373;BME280;44177;43.356;27.672;2023-04-04T12:53:26;97035.00;;;11.45;89.70
58373;BME280;44177;43.356;27.672;2023-04-04T12:55:53;97035.09;;;11.63;89.18
58373;BME280;44177;43.356;27.672;2023-04-04T12:58:20;97032.78;;;11.68;88.50
58373;BME280;44177;43.356;27.672;2023-04-04T13:00:49;97029.69;;;11.74;87.97
58373;BME280;44177;43.356;27.672;2023-04-04T13:03:15;97023.88;;;11.79;86.97
58373;BME280;44177;43.356;27.672;2023-04-04T13:05:42;97030.09;;;11.76;86.40
58373;BME280;44177;43.356;27.672;2023-04-04T13:08:09;97025.34;;;11.65;87.19
58373;BME280;44177;43.356;27.672;2023-04-04T13:11:03;97028.91;;;11.69;86.90
58373;BME280;44177;43.356;27.672;2023-04-04T13:13:34;97028.91;;;11.73;86.68